Share

Brownsville, MN

La Crosse - Downtown (KWILACRO6) Elev 650 ft | 43.82 °N, 91.25 °W | Change Station

Current weather conditions updated 1 second ago

Clear
Clear
45.5 °F
Feels Like 42 °F
N
6.0
Wind Variable Wind from NE
Gusts 10.0 mph
Sunrise 6:17 AM
Sunset 7:52 PM
Moon Waning Gibbous

Today is forecast to be Warmer than yesterday.

Pressure 30.40 in
Visibility 10.0 miles
Clouds Clear
Windchill 42 °F
Dew Point 28 °F
Humidity 51%
Rainfall 0.00 in
Snow Depth Not available.
UV 8 out of 16
Pollen 9.70 out of 12
Air Quality Not available.
Flu Activity Sporadic
METAR KLSE 181653Z 19003KT 10SM CLR 08/M03 A3038 RMK AO2 SLP295 T00781028

More Conditions Fewer Conditions

Pressure 30.40 in
Visibility 10.0 miles
Clouds Clear
Windchill 42 °F
Dew Point 28 °F
Humidity 51%
Rainfall 0.00 in
Snow Depth Not available.
UV 8 out of 16
Pollen 9.70 out of 12
Air Quality Not available.
Flu Activity Sporadic
METAR KLSE 181653Z 19003KT 10SM CLR 08/M03 A3038 RMK AO2 SLP295 T00781028

More Conditions Fewer Conditions

10-Day Weather Forecast

Almanac

Astronomy

Apr. 18, 2014 Rise Set
Actual Time 6:17 AM CDT 7:52 PM CDT
Civil Twilight 5:47 AM CDT 8:22 PM CDT
Nautical Twilight 5:10 AM CDT 8:59 PM CDT
Astronomical Twilight 4:31 AM CDT 9:38 PM CDT
Moon 11:42 PM CDT 8:35 AM CDT
Length of Visible Light 14h 35m
Length of Day
13h 34m
Tomorrow will be 2m 49s longer.
Waning Gibbous, 87% of the Moon is Illuminated
Today
Waning Gibbous
Apr 22
Last Quarter
Apr 29
New
May 6
First Quarter
May 14
Full

Today's Extremes

State Highs State Lows

Community

  • What's for Lunch?
    What's for Lunch?
  • SUNRISE THROUGH THE TREES.
    SUNRISE THROUGH THE TREES.
  • Dog Wood Blossoms
    Dog Wood Blossoms
  • Morning Light
    Morning Light
  • New Day
    New Day

WunderPhotos

Upload Photos

1,702,417 photos uploaded!

Nearby

Snow Depth

Station Depth Elevation
No new snow has been reported.

Coastal Water Temperatures

Place Temperature
No Stations Reporting

Earthquake Activity

City Distance Mag. Time & Date
No recent earthquake activity has been reported nearby.
Minimum magnitude displayed is 2.5.

Nearby Weather Stations

Station Location Temp. Windchill Dew Point Humidity Wind Precip. Elev Updated Type
La Crosse - Downtown, La Crosse, WI 45.5 °F 42 °F 28 °F 51% NE  at  6.0 mph 0.00 in / hr 650 ft 12:03 PM CDT Normal
APRSWXNET La Crosse WI , La Crosse, WI 40 °F 36 °F 27 °F 60% ENE  at  6 mph 0.00 in / hr 1272 ft 10:45 AM CDT MADIS
WIDOT La Crosse - I-90 French Island, La Crosse, WI 47 °F 47 °F 26 °F 44% WSW  at  0 mph 0.00 in / hr 660 ft 11:05 AM CDT MADIS
DeSoto WI, DeSoto, WI 47.2 °F 47 °F 30 °F 50% WSW  at  0.0 mph 0.00 in / hr 758 ft 12:03 PM CDT Rapid Fire
De Soto Wisconsin, De Soto, WI 46.1 °F 44 °F 33 °F 59% SW  at  5.0 mph 0.00 in / hr 650 ft 12:03 PM CDT Rapid Fire

Show More Stations Show Fewer Stations

What do you think?

We're not finished. Please let us know what you like, what you don't like, and what you are still missing.